Time;durP1;ratioP1;P1;durP2;ratioP2;P2;SDS_P1;SDS_P2;PMS_P1;PMS_P2;Temp;Humidity;BMP_temperature;BMP_pressure;BME280_temperature;BME280_humidity;BME280_pressure;Samples;Min_cycle;Max_cycle;Signal;HPM_P1;HPM_P2
2023/09/15 06:52:44;;;;;;;;;;;;;;;14.78;73.36;100125.19;1087748;54;19926;-80
2023/09/15 06:53:47;;;;;;;;;;;;;;;14.65;73.56;100125.66;1087856;47;19991;-81
2023/09/15 08:35:16;;;;;;;;;;;;;;;21.71;54.13;100047.53;1086626;54;19955;-79
2023/09/15 08:36:17;;;;;;;;;;;;;;;21.35;54.23;100041.63;1086779;54;21055;-77
2023/09/15 08:37:23;;;;;;;;;;;;;;;21.48;54.46;100045.34;1087094;47;19933;-77
2023/09/15 08:52:43;;;;;;;;;;;;;;;21.70;53.77;100053.22;1087217;54;19947;-77
2023/09/15 08:53:44;;;;;;;;;;;;;;;21.78;53.67;100052.94;1086895;54;19969;-79
2023/09/15 08:54:48;;;;;;;;;;;;;;;21.64;53.92;100047.56;1090164;39;21056;-79
2023/09/15 08:56:05;;;;;;;;;;;;;;;21.62;53.91;100048.84;1086692;47;19943;-78
2023/09/15 09:07:48;;;;;;;;;;;;;;;22.39;52.60;100036.97;1087689;47;19981;-78
2023/09/15 09:18:36;;;;;;;;;;;;;;;22.73;51.72;100034.81;1087061;47;19943;-79
2023/09/15 09:24:33;;;;;;;;;;;;;;;23.91;49.58;100020.13;1087294;47;19947;-79
2023/09/15 09:25:35;;;;;;;;;;;;;;;23.59;49.45;100018.47;1086904;47;19942;-77
2023/09/15 09:26:38;;;;;;;;;;;;;;;23.40;50.02;100014.97;1085471;47;20014;-78
2023/09/15 09:27:39;;;;;;;;;;;;;;;23.44;49.88;100009.91;1084997;54;19951;-79
2023/09/15 09:28:40;;;;;;;;;;;;;;;23.72;49.72;100011.19;1084438;47;20538;-79
2023/09/15 09:29:43;;;;;;;;;;;;;;;23.83;49.66;100015.84;1086941;47;19942;-78
2023/09/15 09:30:44;;;;;;;;;;;;;;;24.14;48.90;100005.69;1086430;47;19973;-77
2023/09/15 09:31:50;;;;;;;;;;;;;;;24.42;48.80;100009.63;1086277;54;19973;-78
2023/09/15 09:32:51;;;;;;;;;;;;;;;24.68;47.39;100004.81;1087338;54;19939;-78
2023/09/15 09:33:55;;;;;;;;;;;;;;;24.16;48.07;100011.75;1087113;54;19974;-78
2023/09/15 09:34:55;;;;;;;;;;;;;;;24.47;48.00;100011.69;1086514;47;19950;-78
2023/09/15 09:35:57;;;;;;;;;;;;;;;24.51;47.36;100007.38;1087406;46;19943;-78
2023/09/15 09:37:01;;;;;;;;;;;;;;;24.31;48.25;100008.56;1087296;47;19950;-78
2023/09/15 09:38:13;;;;;;;;;;;;;;;24.40;47.85;100009.88;1087815;54;19954;-80
2023/09/15 09:39:23;;;;;;;;;;;;;;;24.73;47.57;100005.75;1087493;47;19942;-82
2023/09/15 09:40:24;;;;;;;;;;;;;;;24.82;47.62;100003.47;1087781;47;19946;-79
2023/09/15 09:41:28;;;;;;;;;;;;;;;24.81;47.25;99999.06;1087644;54;19947;-79
2023/09/15 09:42:33;;;;;;;;;;;;;;;24.58;47.25;100002.63;1087680;54;19949;-78
2023/09/15 09:43:37;;;;;;;;;;;;;;;24.53;47.76;100005.25;1087796;54;19942;-77
2023/09/15 09:44:38;;;;;;;;;;;;;;;24.42;47.98;99994.09;1087587;54;19949;-79
2023/09/15 09:45:41;;;;;;;;;;;;;;;24.24;47.78;99995.03;1087249;54;19977;-77
2023/09/15 09:46:42;;;;;;;;;;;;;;;23.96;48.55;99996.53;1087921;39;20247;-78
2023/09/15 09:47:51;;;;;;;;;;;;;;;23.78;49.47;100002.91;1087608;47;19966;-78
2023/09/15 09:48:51;;;;;;;;;;;;;;;23.90;49.30;100002.09;1087758;54;19949;-79
2023/09/15 09:49:55;;;;;;;;;;;;;;;23.92;49.28;99994.47;1087888;47;19942;-80
2023/09/15 09:51:18;;;;;;;;;;;;;;;;;;;;;
2023/09/15 09:52:22;;;;;;;;;;;;;;;24.56;47.96;99982.94;1087780;54;19966;-79
2023/09/15 09:53:32;;;;;;;;;;;;;;;24.47;47.84;99985.19;1087631;47;19942;-82
2023/09/15 10:04:40;;;;;;;;;;;;;;;25.31;46.48;99981.22;1087412;54;19943;-80
2023/09/15 10:07:45;;;;;;;;;;;;;;;25.64;45.23;99976.91;1087488;47;19943;-79
2023/09/15 10:16:11;;;;;;;;;;;;;;;27.18;42.77;99972.06;1086954;54;19981;-77
2023/09/15 10:17:12;;;;;;;;;;;;;;;26.84;42.84;99960.41;1086819;54;19950;-79
2023/09/15 10:18:28;;;;;;;;;;;;;;;27.09;42.25;99963.44;1086892;54;19957;-78
2023/09/15 10:19:30;;;;;;;;;;;;;;;27.06;42.57;99963.94;1086115;54;19942;-79
2023/09/15 10:20:32;;;;;;;;;;;;;;;27.08;42.62;99960.97;1086529;47;19926;-79
2023/09/15 10:23:36;;;;;;;;;;;;;;;26.65;43.09;99957.09;1086800;47;19950;-78
2023/09/15 10:26:29;;;;;;;;;;;;;;;27.00;42.68;99958.69;1087046;47;19954;-76
2023/09/15 10:27:30;;;;;;;;;;;;;;;27.23;42.20;99955.63;1086927;54;19958;-78
2023/09/15 10:28:33;;;;;;;;;;;;;;;27.22;41.91;99955.91;1086951;47;19943;-78
2023/09/15 10:29:33;;;;;;;;;;;;;;;27.03;42.26;99949.91;1086604;47;20002;-76
2023/09/15 10:30:35;;;;;;;;;;;;;;;26.85;42.37;99946.44;1086457;54;19950;-78
2023/09/15 10:31:42;;;;;;;;;;;;;;;26.61;43.07;99948.56;1087265;47;19950;-77
2023/09/15 10:32:43;;;;;;;;;;;;;;;26.56;43.03;99943.84;1087322;47;19969;-77
2023/09/15 10:33:47;;;;;;;;;;;;;;;26.51;43.00;99949.25;1087211;47;19967;-77
2023/09/15 10:34:48;;;;;;;;;;;;;;;26.51;43.38;99940.19;1087341;54;19950;-78
2023/09/15 10:35:51;;;;;;;;;;;;;;;26.47;43.41;99942.63;1087431;54;19943;-77
2023/09/15 10:36:52;;;;;;;;;;;;;;;26.62;43.09;99936.53;1087048;54;19950;-78
2023/09/15 10:37:59;;;;;;;;;;;;;;;26.34;43.25;99940.25;1087260;54;19950;-78
2023/09/15 10:39:10;;;;;;;;;;;;;;;26.36;43.66;99932.59;1086963;47;19946;-78
2023/09/15 10:40:14;;;;;;;;;;;;;;;26.21;44.05;99939.53;1087251;54;19943;-79
2023/09/15 10:41:25;;;;;;;;;;;;;;;26.44;43.77;99933.00;1086932;47;19949;-78
2023/09/15 10:42:29;;;;;;;;;;;;;;;26.61;43.41;99921.16;1085020;54;19954;-79
2023/09/15 10:43:29;;;;;;;;;;;;;;;26.47;44.00;99926.19;1083937;54;19951;-79
2023/09/15 10:44:32;;;;;;;;;;;;;;;26.91;43.03;99923.50;1083465;54;20085;-78
2023/09/15 10:45:33;;;;;;;;;;;;;;;26.74;42.92;99919.94;1083391;39;20476;-79
2023/09/15 10:46:35;;;;;;;;;;;;;;;27.06;42.71;99925.53;1083318;54;19950;-79
2023/09/15 10:47:41;;;;;;;;;;;;;;;27.27;42.23;99922.22;1084026;47;19946;-77
2023/09/15 10:48:44;;;;;;;;;;;;;;;27.18;42.24;99917.19;1086409;54;19973;-79
2023/09/15 10:49:53;;;;;;;;;;;;;;;27.43;41.70;99913.06;1085915;47;20066;-77
2023/09/15 10:51:04;;;;;;;;;;;;;;;27.71;41.27;99913.84;1085491;54;19953;-78
2023/09/15 10:52:08;;;;;;;;;;;;;;;27.30;41.64;99911.53;1085584;54;19942;-79
2023/09/15 10:53:10;;;;;;;;;;;;;;;27.08;42.20;99911.59;1085776;47;19950;-77
2023/09/15 10:54:14;;;;;;;;;;;;;;;27.51;41.81;99906.28;1086662;54;20049;-79
2023/09/15 10:55:16;;;;;;;;;;;;;;;27.15;42.09;99914.97;1085739;47;19972;-79
2023/09/15 10:56:21;;;;;;;;;;;;;;;27.45;42.11;99910.91;1085594;47;19946;-78
2023/09/15 10:57:22;;;;;;;;;;;;;;;27.58;41.40;99908.81;1085676;54;19968;-79
2023/09/15 10:58:26;;;;;;;;;;;;;;;27.24;42.02;99905.16;1084847;47;19953;-79
2023/09/15 10:59:27;;;;;;;;;;;;;;;27.32;41.98;99908.53;1084751;47;19946;-79
2023/09/15 11:00:30;;;;;;;;;;;;;;;27.38;42.20;99913.00;1085125;54;19946;-79
2023/09/15 11:01:31;;;;;;;;;;;;;;;27.38;42.36;99900.09;1085555;54;19983;-79
2023/09/15 11:02:36;;;;;;;;;;;;;;;27.03;42.88;99906.88;1084992;54;19988;-79
2023/09/15 11:03:39;;;;;;;;;;;;;;;26.54;43.54;99899.44;1085839;54;19989;-79
2023/09/15 11:04:43;;;;;;;;;;;;;;;26.37;43.78;99894.00;1085294;47;19951;-78
2023/09/15 11:05:44;;;;;;;;;;;;;;;26.48;44.31;99903.19;1084337;47;19947;-79
2023/09/15 11:06:51;;;;;;;;;;;;;;;26.41;44.03;99891.59;1084906;54;19958;-79
2023/09/15 11:07:53;;;;;;;;;;;;;;;26.14;44.94;99898.59;1084651;54;19968;-79
2023/09/15 11:08:57;;;;;;;;;;;;;;;25.89;45.68;99901.75;1085299;47;19954;-79
2023/09/15 11:09:58;;;;;;;;;;;;;;;25.80;45.59;99895.03;1085647;47;19976;-80
2023/09/15 11:11:03;;;;;;;;;;;;;;;25.92;45.42;99898.53;1084745;54;19946;-79
2023/09/15 11:12:04;;;;;;;;;;;;;;;25.94;45.31;99904.59;1083721;47;19975;-79
2023/09/15 11:13:05;;;;;;;;;;;;;;;25.72;46.23;99890.84;1083403;54;19947;-79
2023/09/15 11:14:08;;;;;;;;;;;;;;;25.48;46.46;99901.13;1083546;54;19947;-79
2023/09/15 11:15:10;;;;;;;;;;;;;;;25.72;46.21;99900.94;1084326;47;19950;-79
2023/09/15 11:16:14;;;;;;;;;;;;;;;25.82;45.58;99899.22;1084655;54;19974;-80
2023/09/15 11:17:17;;;;;;;;;;;;;;;25.84;45.35;99899.78;1085081;47;19975;-78
2023/09/15 11:18:20;;;;;;;;;;;;;;;25.88;45.59;99894.66;1083683;47;19946;-79
2023/09/15 11:19:24;;;;;;;;;;;;;;;25.37;46.35;99895.44;1083622;54;19954;-79
2023/09/15 11:20:27;;;;;;;;;;;;;;;25.25;47.00;99894.66;1083994;54;19947;-79
2023/09/15 11:21:28;;;;;;;;;;;;;;;25.43;46.62;99893.66;1083969;47;19947;-79
2023/09/15 11:22:31;;;;;;;;;;;;;;;25.52;46.50;99897.63;1083653;54;19947;-79
2023/09/15 11:23:32;;;;;;;;;;;;;;;25.65;45.75;99896.47;1083851;47;19976;-79
2023/09/15 11:24:36;;;;;;;;;;;;;;;25.63;46.12;99887.69;1083461;47;19954;-78
2023/09/15 11:25:36;;;;;;;;;;;;;;;25.18;47.09;99880.31;1083183;46;20034;-79
2023/09/15 11:26:47;;;;;;;;;;;;;;;25.09;47.30;99882.59;1083077;47;19958;-79
2023/09/15 11:27:47;;;;;;;;;;;;;;;25.15;47.33;99875.31;1082708;54;19954;-79
2023/09/15 11:28:54;;;;;;;;;;;;;;;25.22;46.92;99865.91;1082728;54;19954;-79
2023/09/15 11:29:54;;;;;;;;;;;;;;;25.32;47.45;99876.19;1083713;54;19957;-78
2023/09/15 11:30:59;;;;;;;;;;;;;;;25.43;47.58;99865.44;1083151;47;20830;-79
2023/09/15 11:32:01;;;;;;;;;;;;;;;25.53;47.11;99871.94;1082728;47;19946;-80
2023/09/15 11:33:07;;;;;;;;;;;;;;;25.59;46.62;99869.28;1083309;47;19946;-79
2023/09/15 11:34:08;;;;;;;;;;;;;;;25.61;46.61;99872.59;1083433;54;20560;-81
2023/09/15 11:35:14;;;;;;;;;;;;;;;25.68;46.60;99871.34;1082557;47;19954;-78
2023/09/15 11:36:15;;;;;;;;;;;;;;;25.79;46.12;99860.56;1082968;47;19950;-78
2023/09/15 11:37:18;;;;;;;;;;;;;;;25.90;45.80;99861.53;1082949;47;20959;-79
2023/09/15 11:38:19;;;;;;;;;;;;;;;25.71;46.20;99853.59;1082848;47;19951;-79
2023/09/15 11:39:25;;;;;;;;;;;;;;;25.54;46.23;99868.13;1082955;54;19946;-79
2023/09/15 11:40:25;;;;;;;;;;;;;;;25.44;46.84;99856.16;1083113;47;19947;-79
2023/09/15 11:41:29;;;;;;;;;;;;;;;25.34;46.67;99857.63;1082491;47;20744;-77
2023/09/15 11:42:32;;;;;;;;;;;;;;;25.22;47.01;99859.63;1082560;54;19946;-81
2023/09/15 11:43:35;;;;;;;;;;;;;;;25.28;46.86;99852.31;1082479;47;19947;-78
2023/09/15 11:44:38;;;;;;;;;;;;;;;25.30;47.14;99855.63;1082487;47;19947;-79
2023/09/15 11:45:39;;;;;;;;;;;;;;;25.30;46.72;99850.16;1082628;47;20819;-78
2023/09/15 11:46:42;;;;;;;;;;;;;;;25.26;47.10;99855.28;1082505;54;20124;-79
2023/09/15 11:47:45;;;;;;;;;;;;;;;25.30;47.34;99861.94;1082656;47;19969;-78
2023/09/15 11:48:49;;;;;;;;;;;;;;;25.47;46.15;99850.19;1082552;54;19950;-78
2023/09/15 11:49:50;;;;;;;;;;;;;;;25.65;45.98;99851.84;1083053;54;19946;-78
2023/09/15 11:50:53;;;;;;;;;;;;;;;25.55;45.91;99852.53;1083409;54;19950;-80
2023/09/15 11:51:57;;;;;;;;;;;;;;;25.53;45.80;99854.66;1082987;47;19954;-78
2023/09/15 11:52:58;;;;;;;;;;;;;;;25.56;45.87;99847.88;1082686;47;19946;-78
2023/09/15 11:54:03;;;;;;;;;;;;;;;25.51;46.00;99854.94;1082964;54;19950;-79
2023/09/15 11:55:04;;;;;;;;;;;;;;;25.49;45.83;99854.34;1083279;54;20010;-78
2023/09/15 11:56:08;;;;;;;;;;;;;;;25.60;45.78;99844.38;1082927;47;19985;-79
2023/09/15 11:57:09;;;;;;;;;;;;;;;25.29;45.10;99841.13;1082867;54;19951;-79
2023/09/15 11:58:13;;;;;;;;;;;;;;;25.29;44.98;99838.41;1083294;39;20336;-79
2023/09/15 11:59:15;;;;;;;;;;;;;;;25.25;44.77;99841.88;1082247;47;19970;-78
2023/09/15 12:00:18;;;;;;;;;;;;;;;25.25;45.60;99837.22;1083478;39;20774;-79
2023/09/15 12:01:21;;;;;;;;;;;;;;;25.41;45.54;99834.78;1082213;47;20598;-79
2023/09/15 12:02:25;;;;;;;;;;;;;;;25.48;45.22;99832.72;1082206;47;19947;-78
2023/09/15 12:03:27;;;;;;;;;;;;;;;25.58;45.38;99829.28;1082409;47;19979;-79
2023/09/15 12:04:30;;;;;;;;;;;;;;;25.57;45.32;99831.22;1082403;47;19950;-79
2023/09/15 12:05:31;;;;;;;;;;;;;;;25.58;45.38;99830.13;1082473;54;20001;-79
2023/09/15 12:06:37;;;;;;;;;;;;;;;25.51;45.13;99829.47;1083067;54;19962;-78
2023/09/15 12:07:38;;;;;;;;;;;;;;;25.61;45.22;99829.63;1082457;47;19950;-78
2023/09/15 12:08:41;;;;;;;;;;;;;;;25.52;45.08;99829.22;1082697;54;19958;-79
2023/09/15 12:09:42;;;;;;;;;;;;;;;25.56;44.57;99831.44;1083075;54;19970;-80
2023/09/15 12:10:46;;;;;;;;;;;;;;;25.66;44.63;99831.59;1082573;54;19947;-79
2023/09/15 12:11:47;;;;;;;;;;;;;;;25.74;44.64;99822.97;1082857;47;19973;-80
2023/09/15 12:12:51;;;;;;;;;;;;;;;25.62;44.03;99827.72;1083224;54;19953;-80
2023/09/15 12:13:52;;;;;;;;;;;;;;;25.43;44.01;99832.63;1083374;54;19958;-78
2023/09/15 12:15:00;;;;;;;;;;;;;;;25.49;43.81;99828.91;1082434;47;19950;-79
2023/09/15 12:16:01;;;;;;;;;;;;;;;25.44;43.52;99820.59;1082322;47;19999;-79
2023/09/15 12:17:05;;;;;;;;;;;;;;;25.40;42.94;99824.94;1081877;47;20033;-80
2023/09/15 12:18:06;;;;;;;;;;;;;;;25.45;42.35;99819.53;1082501;54;19969;-81
2023/09/15 12:19:09;;;;;;;;;;;;;;;25.40;41.82;99812.06;1082608;54;20014;-80
2023/09/15 12:20:10;;;;;;;;;;;;;;;25.60;41.93;99814.28;1082643;47;19998;-79
2023/09/15 12:21:14;;;;;;;;;;;;;;;25.72;41.50;99819.69;1083062;47;19998;-79
2023/09/15 12:22:18;;;;;;;;;;;;;;;25.86;41.37;99811.94;1082614;54;19947;-79
2023/09/15 12:23:21;;;;;;;;;;;;;;;25.84;40.80;99806.69;1083127;31;20423;-80
2023/09/15 12:24:21;;;;;;;;;;;;;;;25.87;41.25;99799.91;1082969;54;19988;-79
2023/09/15 12:25:25;;;;;;;;;;;;;;;25.98;40.89;99801.69;1085276;31;20543;-79
2023/09/15 12:26:25;;;;;;;;;;;;;;;26.09;40.73;99810.06;1082581;47;20027;-79
2023/09/15 12:27:29;;;;;;;;;;;;;;;26.16;41.00;99808.81;1082482;47;20549;-80
2023/09/15 12:28:30;;;;;;;;;;;;;;;26.10;40.63;99804.34;1082480;54;20073;-79
2023/09/15 12:29:33;;;;;;;;;;;;;;;26.18;40.46;99796.78;1082207;47;19947;-79
2023/09/15 12:30:34;;;;;;;;;;;;;;;26.15;40.35;99800.84;1083345;39;20368;-79
2023/09/15 12:31:41;;;;;;;;;;;;;;;25.99;40.71;99795.13;1082162;54;19989;-80
2023/09/15 12:32:44;;;;;;;;;;;;;;;26.00;40.50;99794.06;1083143;47;19951;-79
2023/09/15 12:33:47;;;;;;;;;;;;;;;25.97;40.82;99797.31;1082691;47;19947;-78
2023/09/15 12:34:48;;;;;;;;;;;;;;;26.10;40.65;99792.56;1082725;54;19997;-79
2023/09/15 12:35:51;;;;;;;;;;;;;;;26.21;40.09;99794.34;1083334;54;19958;-79
2023/09/15 12:36:52;;;;;;;;;;;;;;;26.20;40.04;99791.88;1083764;54;19947;-79
2023/09/15 12:37:58;;;;;;;;;;;;;;;26.29;39.87;99787.59;1083688;47;20000;-80
2023/09/15 12:38:59;;;;;;;;;;;;;;;26.38;39.78;99783.34;1082787;47;19975;-79
2023/09/15 12:40:02;;;;;;;;;;;;;;;26.44;39.85;99782.28;1084185;54;19994;-79
2023/09/15 12:41:03;;;;;;;;;;;;;;;26.50;39.47;99776.88;1083444;54;19969;-79
2023/09/15 12:42:06;;;;;;;;;;;;;;;26.49;40.01;99783.44;1083016;39;20752;-80
2023/09/15 12:43:07;;;;;;;;;;;;;;;26.48;39.75;99774.38;1082320;46;20004;-79
2023/09/15 12:44:10;;;;;;;;;;;;;;;26.48;39.68;99777.13;1082946;39;20720;-79
2023/09/15 12:45:12;;;;;;;;;;;;;;;26.49;39.75;99775.22;1083858;54;19970;-80
2023/09/15 12:46:15;;;;;;;;;;;;;;;26.49;39.69;99777.97;1083188;54;19947;-79
2023/09/15 12:47:16;;;;;;;;;;;;;;;26.50;39.69;99779.63;1083755;47;19946;-80
2023/09/15 12:48:19;;;;;;;;;;;;;;;26.50;39.37;99774.16;1084212;54;19946;-79
2023/09/15 12:49:20;;;;;;;;;;;;;;;26.48;39.54;99768.91;1083528;54;19954;-79
2023/09/15 12:50:23;;;;;;;;;;;;;;;26.49;39.53;99761.53;1084770;39;20395;-79
2023/09/15 12:51:24;;;;;;;;;;;;;;;26.57;39.94;99761.88;1084229;47;20006;-80
2023/09/15 12:52:28;;;;;;;;;;;;;;;26.60;39.95;99760.53;1085149;39;20447;-80
2023/09/15 12:53:31;;;;;;;;;;;;;;;26.56;39.59;99759.41;1083722;54;19950;-80
2023/09/15 12:54:35;;;;;;;;;;;;;;;26.51;39.59;99751.09;1083833;54;20597;-80
2023/09/15 12:55:36;;;;;;;;;;;;;;;26.60;39.31;99755.88;1082321;54;19946;-80
2023/09/15 12:56:39;;;;;;;;;;;;;;;26.67;39.48;99750.19;1082242;54;19950;-80
2023/09/15 12:57:39;;;;;;;;;;;;;;;26.63;39.73;99757.28;1083111;54;19953;-80
2023/09/15 12:58:43;;;;;;;;;;;;;;;26.65;39.56;99766.06;1084364;54;19954;-80
2023/09/15 12:59:44;;;;;;;;;;;;;;;26.55;39.72;99757.75;1083207;47;19990;-78
2023/09/15 13:00:47;;;;;;;;;;;;;;;26.58;39.61;99760.78;1083611;47;19951;-79
2023/09/15 13:01:48;;;;;;;;;;;;;;;26.51;40.03;99760.19;1083494;39;20724;-80
2023/09/15 13:02:51;;;;;;;;;;;;;;;26.64;39.65;99758.94;1083579;47;19962;-80
2023/09/15 13:03:52;;;;;;;;;;;;;;;26.66;39.64;99755.94;1083183;54;19951;-80
2023/09/15 13:04:55;;;;;;;;;;;;;;;26.74;39.49;99759.03;1084679;54;19951;-80
2023/09/15 13:05:55;;;;;;;;;;;;;;;26.76;39.25;99756.88;1086344;47;19942;-79
2023/09/15 13:07:00;;;;;;;;;;;;;;;26.73;39.24;99754.63;1086371;39;20533;-78
2023/09/15 13:08:00;;;;;;;;;;;;;;;26.77;39.40;99753.06;1087687;39;20627;-79
2023/09/15 13:09:09;;;;;;;;;;;;;;;26.80;39.41;99745.41;1082774;47;19954;-79
2023/09/15 13:10:10;;;;;;;;;;;;;;;26.81;39.03;99747.06;1082587;47;19946;-78
2023/09/15 13:11:13;;;;;;;;;;;;;;;26.81;39.37;99744.31;1082951;47;20024;-80
2023/09/15 13:12:14;;;;;;;;;;;;;;;26.53;39.45;99744.31;1082942;46;19946;-80
2023/09/15 13:13:17;;;;;;;;;;;;;;;26.57;39.46;99742.69;1082968;47;19999;-79
2023/09/15 13:14:18;;;;;;;;;;;;;;;26.63;39.52;99741.69;1083963;47;19971;-79
2023/09/15 13:15:22;;;;;;;;;;;;;;;26.67;39.54;99735.66;1083468;47;19973;-79
2023/09/15 13:16:23;;;;;;;;;;;;;;;26.63;39.21;99735.34;1083329;47;19958;-80
2023/09/15 13:17:26;;;;;;;;;;;;;;;26.65;39.37;99738.66;1082644;54;20049;-80
2023/09/15 13:18:27;;;;;;;;;;;;;;;26.69;39.12;99731.56;1083173;47;20483;-80
2023/09/15 13:19:30;;;;;;;;;;;;;;;26.68;39.28;99726.34;1083651;47;19962;-80
2023/09/15 13:20:31;;;;;;;;;;;;;;;26.71;39.34;99720.34;1082669;54;19974;-79
2023/09/15 13:21:36;;;;;;;;;;;;;;;26.71;39.28;99723.91;1083766;54;19950;-79
2023/09/15 13:22:37;;;;;;;;;;;;;;;26.75;38.99;99732.44;1083184;54;19947;-79
2023/09/15 13:23:40;;;;;;;;;;;;;;;26.73;39.28;99718.19;1082550;47;19950;-80
2023/09/15 13:24:43;;;;;;;;;;;;;;;26.78;39.32;99721.00;1082853;47;19971;-79
2023/09/15 13:25:47;;;;;;;;;;;;;;;26.80;38.70;99713.34;1084352;47;19965;-80
2023/09/15 13:26:47;;;;;;;;;;;;;;;26.66;38.87;99703.84;1082968;54;19971;-79
2023/09/15 13:27:50;;;;;;;;;;;;;;;26.61;38.91;99718.34;1083137;39;20848;-79
2023/09/15 13:28:51;;;;;;;;;;;;;;;26.60;38.81;99711.19;1083068;54;19990;-79
2023/09/15 13:29:56;;;;;;;;;;;;;;;26.49;38.85;99710.28;1082246;47;19978;-79
2023/09/15 13:30:57;;;;;;;;;;;;;;;26.68;38.58;99716.22;1082892;47;19950;-80
2023/09/15 13:32:00;;;;;;;;;;;;;;;26.62;38.47;99711.75;1082398;54;19989;-80
2023/09/15 13:33:01;;;;;;;;;;;;;;;26.62;38.46;99709.88;1083173;47;19975;-79
2023/09/15 13:34:04;;;;;;;;;;;;;;;26.59;38.35;99707.63;1084347;54;19987;-79
2023/09/15 13:35:05;;;;;;;;;;;;;;;26.56;38.42;99702.66;1083802;47;19983;-80
2023/09/15 13:36:09;;;;;;;;;;;;;;;26.63;38.38;99706.03;1082995;54;19950;-79
2023/09/15 13:37:10;;;;;;;;;;;;;;;26.65;38.38;99710.41;1083419;46;19953;-79
2023/09/15 13:38:13;;;;;;;;;;;;;;;26.63;38.40;99714.25;1083648;54;20061;-80
2023/09/15 13:39:14;;;;;;;;;;;;;;;26.69;37.95;99703.34;1083886;54;19981;-78
2023/09/15 13:40:20;;;;;;;;;;;;;;;26.73;38.18;99691.59;1083743;39;20371;-80
2023/09/15 13:41:20;;;;;;;;;;;;;;;26.73;38.11;99696.25;1082866;47;20069;-79
2023/09/15 13:42:31;;;;;;;;;;;;;;;26.77;38.09;99697.41;1083444;47;20721;-80
2023/09/15 13:43:32;;;;;;;;;;;;;;;26.78;37.54;99699.06;1083153;39;20359;-80
2023/09/15 13:44:35;;;;;;;;;;;;;;;26.79;37.68;99695.25;1083444;54;19956;-79
2023/09/15 13:45:36;;;;;;;;;;;;;;;26.67;37.33;99697.28;1083137;54;20791;-79
2023/09/15 13:46:39;;;;;;;;;;;;;;;26.76;37.84;99692.97;1082596;54;19957;-79
2023/09/15 13:47:40;;;;;;;;;;;;;;;26.81;37.57;99693.06;1084294;46;19971;-79
2023/09/15 13:48:44;;;;;;;;;;;;;;;26.83;37.63;99690.88;1084633;47;19951;-79
2023/09/15 13:49:45;;;;;;;;;;;;;;;26.89;37.34;99689.00;1083929;51;19971;-80
2023/09/15 13:50:48;;;;;;;;;;;;;;;26.91;37.33;99687.66;1083986;54;19946;-79
2023/09/15 13:51:49;;;;;;;;;;;;;;;26.93;37.14;99690.13;1084309;54;19981;-79
2023/09/15 13:52:52;;;;;;;;;;;;;;;26.94;37.03;99698.09;1087008;47;20291;-78
2023/09/15 13:53:53;;;;;;;;;;;;;;;26.79;37.17;99689.75;1083323;54;20031;-79
2023/09/15 13:54:53;;;;;;;;;;;;;;;26.83;37.30;99690.88;1083346;47;20905;-78
2023/09/15 13:56:00;;;;;;;;;;;;;;;26.91;37.15;99690.41;1083899;47;19958;-79
2023/09/15 13:57:01;;;;;;;;;;;;;;;26.97;36.97;99695.91;1083439;54;19973;-78
2023/09/15 13:58:04;;;;;;;;;;;;;;;26.89;37.12;99681.63;1084278;53;19951;-78
2023/09/15 13:59:04;;;;;;;;;;;;;;;26.99;36.99;99688.25;1085683;54;19970;-79
2023/09/15 14:00:09;;;;;;;;;;;;;;;27.00;36.83;99681.69;1086041;47;19942;-78
2023/09/15 14:01:10;;;;;;;;;;;;;;;27.05;36.77;99688.03;1086977;47;20016;-77
2023/09/15 14:02:15;;;;;;;;;;;;;;;26.99;36.41;99683.59;1086244;47;19946;-79
2023/09/15 14:03:16;;;;;;;;;;;;;;;26.97;36.89;99684.94;1086302;47;19950;-79
2023/09/15 14:04:19;;;;;;;;;;;;;;;27.04;36.84;99680.06;1083463;31;20533;-79
2023/09/15 14:05:20;;;;;;;;;;;;;;;27.08;36.49;99681.19;1082519;47;19950;-78
2023/09/15 14:06:23;;;;;;;;;;;;;;;27.07;36.62;99676.81;1081972;47;19995;-78
2023/09/15 14:07:24;;;;;;;;;;;;;;;26.96;36.81;99686.03;1081791;47;19946;-79
2023/09/15 14:08:28;;;;;;;;;;;;;;;26.85;36.39;99682.41;1081802;47;19957;-79
2023/09/15 14:09:29;;;;;;;;;;;;;;;26.89;36.80;99678.88;1082268;47;19947;-80
2023/09/15 14:10:32;;;;;;;;;;;;;;;26.94;36.71;99678.09;1082154;47;19952;-80
2023/09/15 14:11:37;;;;;;;;;;;;;;;26.98;36.88;99676.44;1081920;47;19950;-78
2023/09/15 14:12:40;;;;;;;;;;;;;;;27.04;36.64;99686.38;1081935;47;19992;-78
2023/09/15 14:13:41;;;;;;;;;;;;;;;27.09;36.68;99675.44;1082099;47;19950;-79
2023/09/15 14:14:47;;;;;;;;;;;;;;;26.93;36.92;99670.94;1081879;47;19974;-80
2023/09/15 14:15:47;;;;;;;;;;;;;;;26.77;37.28;99667.25;1082024;54;20823;-79
2023/09/15 14:16:51;;;;;;;;;;;;;;;26.70;37.42;99677.59;1081779;54;19951;-78
2023/09/15 14:17:52;;;;;;;;;;;;;;;26.57;37.31;99676.91;1081603;54;19981;-79
2023/09/15 14:18:55;;;;;;;;;;;;;;;26.60;37.58;99681.03;1082224;39;20571;-79
2023/09/15 14:19:56;;;;;;;;;;;;;;;26.71;37.78;99673.75;1081776;47;19970;-79
2023/09/15 14:21:00;;;;;;;;;;;;;;;26.82;37.44;99678.28;1082335;54;19999;-79
2023/09/15 14:22:01;;;;;;;;;;;;;;;26.91;37.15;99684.09;1082629;47;19957;-79
2023/09/15 14:23:04;;;;;;;;;;;;;;;26.96;37.16;99675.91;1082828;54;20057;-79
2023/09/15 14:24:05;;;;;;;;;;;;;;;26.96;37.19;99675.06;1082886;54;19946;-79
2023/09/15 14:25:09;;;;;;;;;;;;;;;26.90;37.70;99677.78;1082686;54;19961;-78
2023/09/15 14:26:10;;;;;;;;;;;;;;;26.96;37.45;99678.66;1082354;54;19946;-79
2023/09/15 14:27:13;;;;;;;;;;;;;;;27.00;37.21;99674.28;1082534;47;19987;-78
2023/09/15 14:28:17;;;;;;;;;;;;;;;27.07;36.71;99683.09;1083089;54;19951;-80
2023/09/15 14:29:18;;;;;;;;;;;;;;;27.12;36.88;99671.34;1083374;54;19974;-79
2023/09/15 14:30:21;;;;;;;;;;;;;;;27.19;36.88;99671.13;1083114;54;20017;-79
2023/09/15 14:31:22;;;;;;;;;;;;;;;27.22;36.77;99674.16;1083086;47;19973;-78
2023/09/15 14:32:25;;;;;;;;;;;;;;;27.25;36.76;99668.16;1083511;54;19998;-78
2023/09/15 14:33:26;;;;;;;;;;;;;;;27.22;37.11;99668.66;1083310;47;20557;-78
2023/09/15 14:34:29;;;;;;;;;;;;;;;27.20;36.90;99664.53;1082982;47;19971;-79
2023/09/15 14:35:30;;;;;;;;;;;;;;;27.25;36.75;99665.41;1083521;47;19954;-79
2023/09/15 14:36:34;;;;;;;;;;;;;;;27.30;36.61;99667.34;1083605;47;20007;-78
2023/09/15 14:37:34;;;;;;;;;;;;;;;27.32;36.58;99656.09;1084202;54;19963;-79
2023/09/15 14:38:39;;;;;;;;;;;;;;;27.32;36.60;99664.31;1082739;47;19993;-79
2023/09/15 14:39:42;;;;;;;;;;;;;;;27.36;36.54;99660.78;1082941;47;19978;-79
2023/09/15 14:40:45;;;;;;;;;;;;;;;27.38;36.73;99664.09;1082266;54;19957;-78
2023/09/15 14:41:47;;;;;;;;;;;;;;;27.39;36.66;99660.25;1083127;54;19969;-78
2023/09/15 14:42:53;;;;;;;;;;;;;;;27.35;36.55;99659.13;1082806;47;19958;-78
2023/09/15 14:43:54;;;;;;;;;;;;;;;27.16;36.70;99657.94;1082230;54;20073;-78
2023/09/15 14:44:58;;;;;;;;;;;;;;;27.20;36.68;99661.78;1082929;47;19950;-79
2023/09/15 14:45:59;;;;;;;;;;;;;;;27.19;36.83;99665.63;1082712;47;19974;-79
2023/09/15 14:47:02;;;;;;;;;;;;;;;27.16;36.65;99660.69;1083820;31;20613;-79
2023/09/15 14:48:04;;;;;;;;;;;;;;;27.18;36.52;99656.59;1083066;54;19950;-78
2023/09/15 14:49:08;;;;;;;;;;;;;;;27.20;36.78;99656.31;1082861;54;20042;-77
2023/09/15 14:50:09;;;;;;;;;;;;;;;27.20;36.50;99659.91;1082446;47;19954;-78
2023/09/15 14:51:12;;;;;;;;;;;;;;;27.22;36.62;99657.69;1082585;47;21105;-79
2023/09/15 14:52:13;;;;;;;;;;;;;;;27.24;36.74;99655.50;1082863;54;19951;-78
2023/09/15 14:53:16;;;;;;;;;;;;;;;27.27;36.83;99658.81;1082280;47;19950;-79
2023/09/15 14:54:17;;;;;;;;;;;;;;;27.15;36.83;99648.88;1082652;47;20490;-78
2023/09/15 14:55:18;;;;;;;;;;;;;;;27.00;37.22;99663.31;1081988;54;20063;-79
2023/09/15 14:56:21;;;;;;;;;;;;;;;27.09;37.21;99655.44;1081955;54;21327;-79
2023/09/15 14:57:22;;;;;;;;;;;;;;;27.17;37.07;99646.69;1082314;46;20015;-79
2023/09/15 14:58:28;;;;;;;;;;;;;;;27.21;36.78;99645.06;1082133;54;19947;-80
2023/09/15 14:59:29;;;;;;;;;;;;;;;27.22;36.93;99643.97;1082577;47;19970;-79
2023/09/15 15:00:31;;;;;;;;;;;;;;;27.21;37.13;99647.81;1083301;39;20481;-80
2023/09/15 15:01:34;;;;;;;;;;;;;;;27.20;37.83;99654.41;1083037;54;19951;-79
2023/09/15 15:02:36;;;;;;;;;;;;;;;27.03;38.10;99656.47;1083219;39;20179;-79
2023/09/15 15:03:39;;;;;;;;;;;;;;;26.97;38.63;99647.38;1082795;39;20450;-79